Esmond, South Dakota
Current Conditions -  °F | °C
As of 9:55 PM on Friday 19 Dec 2014 (Local Time) from KHON Reporting Station
Haze Haze  
Wind Chill: -8°   Ceiling: 600
Heat Index: -2°   Visibility: 5mi
Dew Point: -3°   Wind: 15mph
Humidity: 89%   Direction: 190°S
Pressure: 30.03"   Gusts: NA
Location:  44.3062°N, 97.8068°W
Report Text: KHON 200355Z AUTO 19013KT 5SM BR OVC006 M02/M03 A3003 RMK AO2 SLP187 T10171033
Loading
Personal Weather Stations






























Interactive Weather Map New forecast layout! Learn more

10-Day Weather Forecast

Advertisements
Track Severe Weather on mobile